Gibsons, Canada
Current Conditions -  °F | °C
As of 1:00 PM on Monday 24 Nov 2014 (Local Time) from CYVR Reporting Station
Light Rain Light Rain  
Wind Chill: 42°   Ceiling: 4000
Heat Index: 46°   Visibility: 8mi
Dew Point: 41°   Wind: 9mph
Humidity: 81%   Direction: 70°ENE
Pressure: 30.22"   Gusts: NA
Location:  49.4°N, 123.5°W
Report Text: CYVR 242100Z 07008KT 8SM -RA SCT021 OVC040 08/05 A3022 RMK SC3NS5 SLP233
Loading
Personal Weather Stations






























Interactive Weather Map New forecast layout! Learn more

10-Day Weather Forecast

Advertisements
Track Severe Weather on mobile